createdAt,value
2023-02-07T00:01:33.384Z,99423.47
2023-02-07T00:04:01.726Z,99424.56
2023-02-07T00:06:36.137Z,99436.22
2023-02-07T00:09:07.954Z,99448.66
2023-02-07T00:11:37.131Z,99439.34
2023-02-07T00:14:04.721Z,99446.56
2023-02-07T00:16:32.355Z,99452.16
2023-02-07T00:19:00.473Z,99445.25
2023-02-07T00:21:29.058Z,99447.25
2023-02-07T00:23:57.155Z,99439.59
2023-02-07T00:26:27.053Z,99434.41
2023-02-07T00:28:56.432Z,99437.09
2023-02-07T00:31:32.156Z,99435.66
2023-02-07T00:34:04.286Z,99432.41
2023-02-07T00:36:33.529Z,99414.31
2023-02-07T00:39:05.045Z,99432.91
2023-02-07T00:41:33.478Z,99432.22
2023-02-07T00:44:02.308Z,99443.00
2023-02-07T00:46:30.245Z,99443.31
2023-02-07T00:48:57.911Z,99436.50
2023-02-07T00:51:25.935Z,99447.09
2023-02-07T00:53:55.071Z,99437.47
2023-02-07T00:56:26.479Z,99431.34
2023-02-07T00:58:54.019Z,99417.47
2023-02-07T01:01:22.631Z,99422.13
2023-02-07T01:03:50.995Z,99427.63
2023-02-07T01:06:19.457Z,99432.09
2023-02-07T01:08:47.543Z,99429.53
2023-02-07T01:11:17.935Z,99428.09
2023-02-07T01:13:45.757Z,99430.00
2023-02-07T01:16:24.451Z,99423.56
2023-02-07T01:18:52.567Z,99430.69
2023-02-07T01:21:24.625Z,99429.91
2023-02-07T01:23:56.473Z,99436.84
2023-02-07T01:26:26.221Z,99455.22
2023-02-07T01:28:55.638Z,99452.59
2023-02-07T01:31:23.850Z,99448.09
2023-02-07T01:34:00.902Z,99448.09
2023-02-07T01:36:30.039Z,99446.38
2023-02-07T01:38:58.242Z,99446.47
2023-02-07T01:41:27.814Z,99443.91
2023-02-07T01:44:07.327Z,99452.09
2023-02-07T01:46:36.069Z,99449.72
2023-02-07T01:49:13.453Z,99448.28
2023-02-07T01:51:54.716Z,99450.03
2023-02-07T01:54:25.571Z,99451.69
2023-02-07T01:56:59.009Z,99443.06
2023-02-07T01:59:27.800Z,99432.72
2023-02-07T02:01:56.731Z,99429.38
2023-02-07T02:04:25.408Z,99436.59
2023-02-07T02:06:53.681Z,99427.03
2023-02-07T02:09:21.278Z,99437.56
2023-02-07T02:12:33.652Z,99438.94
2023-02-07T02:15:30.474Z,99435.38
2023-02-07T02:18:42.580Z,99433.00
2023-02-07T02:21:49.070Z,99424.84
2023-02-07T02:25:11.289Z,99427.47
2023-02-07T02:28:38.964Z,99421.56
2023-02-07T02:31:54.558Z,99424.13
2023-02-07T02:34:43.767Z,99438.97
2023-02-07T02:37:45.178Z,99433.00
2023-02-07T02:40:49.892Z,99441.75
2023-02-07T02:43:44.719Z,99423.53
2023-02-07T02:46:26.208Z,99433.13
2023-02-07T02:48:56.164Z,99434.03
2023-02-07T02:51:23.832Z,99437.63
2023-02-07T02:53:56.648Z,99432.41
2023-02-07T02:57:09.316Z,99443.16
2023-02-07T02:59:51.363Z,99446.69
2023-02-07T03:02:28.531Z,99449.47
2023-02-07T03:05:02.218Z,99459.06
2023-02-07T03:07:54.898Z,99466.16
2023-02-07T03:10:40.417Z,99470.63
2023-02-07T03:13:16.296Z,99487.13
2023-02-07T03:16:17.670Z,99475.16
2023-02-07T03:19:22.549Z,99481.38
2023-02-07T03:21:57.559Z,99476.00
2023-02-07T03:24:34.845Z,99474.31
2023-02-07T03:27:08.413Z,99475.16
2023-02-07T03:29:39.908Z,99477.75
2023-02-07T03:32:10.593Z,99480.31
2023-02-07T03:35:37.755Z,99486.91
2023-02-07T03:38:06.928Z,99481.28
2023-02-07T03:40:42.875Z,99481.41
2023-02-07T03:43:31.912Z,99472.81
2023-02-07T03:45:59.632Z,99475.44
2023-02-07T03:48:27.155Z,99468.53
2023-02-07T03:50:54.694Z,99475.56
2023-02-07T03:53:22.306Z,99477.41
2023-02-07T03:55:49.851Z,99474.84
2023-02-07T03:58:17.366Z,99478.50
2023-02-07T04:00:45.564Z,99476.75
2023-02-07T04:03:13.108Z,99478.50
2023-02-07T04:05:40.887Z,99475.09
2023-02-07T04:08:08.393Z,99471.63
2023-02-07T04:10:35.869Z,99456.78
2023-02-07T04:13:03.403Z,99454.22
2023-02-07T04:15:31.064Z,99448.97
2023-02-07T04:17:58.746Z,99446.38
2023-02-07T04:20:26.355Z,99448.09
2023-02-07T04:22:53.873Z,99449.06
2023-02-07T04:25:21.404Z,99451.75
2023-02-07T04:27:52.165Z,99462.28
2023-02-07T04:30:19.742Z,99456.31
2023-02-07T04:32:47.275Z,99446.03
2023-02-07T04:35:14.880Z,99439.09
2023-02-07T04:37:42.432Z,99449.66
2023-02-07T04:40:10.818Z,99449.88
2023-02-07T04:42:38.369Z,99446.44
2023-02-07T04:45:06.188Z,99449.13
2023-02-07T04:47:33.729Z,99445.78
2023-02-07T04:50:01.211Z,99444.16
2023-02-07T04:52:28.847Z,99445.97
2023-02-07T04:54:56.357Z,99447.81
2023-02-07T04:57:23.850Z,99448.78
2023-02-07T04:59:51.356Z,99450.56
2023-02-07T05:02:18.866Z,99448.00
2023-02-07T05:04:46.405Z,99447.34
2023-02-07T05:07:13.948Z,99446.47
2023-02-07T05:09:41.556Z,99442.25
2023-02-07T05:12:09.143Z,99434.44
2023-02-07T05:14:36.621Z,99444.94
2023-02-07T05:17:04.212Z,99440.75
2023-02-07T05:19:33.753Z,99439.03
2023-02-07T05:22:01.292Z,99443.56
2023-02-07T05:24:28.939Z,99445.41
2023-02-07T05:26:56.551Z,99442.03
2023-02-07T05:29:24.137Z,99432.56
2023-02-07T05:32:10.394Z,99438.66
2023-02-07T05:34:37.889Z,99430.19
2023-02-07T05:37:05.410Z,99430.31
2023-02-07T05:39:32.901Z,99431.09
2023-02-07T05:42:00.429Z,99436.28
2023-02-07T05:44:27.993Z,99434.53
2023-02-07T05:46:55.471Z,99432.81
2023-02-07T05:49:23.489Z,99443.38
2023-02-07T05:51:51.046Z,99438.19
2023-02-07T05:54:18.521Z,99437.34
2023-02-07T05:56:46.327Z,99440.81
2023-02-07T05:59:14.031Z,99439.03
2023-02-07T06:01:41.572Z,99446.75
2023-02-07T06:04:09.061Z,99444.91
2023-02-07T06:06:36.768Z,99449.31
2023-02-07T06:09:04.882Z,99444.22
2023-02-07T06:11:32.405Z,99440.69
2023-02-07T06:13:59.902Z,99437.03
2023-02-07T06:16:27.478Z,99434.53
2023-02-07T06:18:54.996Z,99429.25
2023-02-07T06:21:22.548Z,99424.16
2023-02-07T06:23:51.610Z,99435.50
2023-02-07T06:26:19.654Z,99441.44
2023-02-07T06:28:47.184Z,99434.66
2023-02-07T06:31:15.014Z,99432.88
2023-02-07T06:33:42.590Z,99445.81
2023-02-07T06:36:10.235Z,99456.31
2023-02-07T06:38:37.835Z,99452.72
2023-02-07T06:41:05.661Z,99452.84
2023-02-07T06:43:33.183Z,99452.06
2023-02-07T06:46:00.720Z,99452.09
2023-02-07T06:48:28.260Z,99462.59
2023-02-07T06:50:55.837Z,99465.38
2023-02-07T06:53:23.377Z,99458.44
2023-02-07T06:55:51.267Z,99463.66
2023-02-07T06:58:18.745Z,99465.38
2023-02-07T07:00:46.696Z,99473.16
2023-02-07T07:03:16.015Z,99472.31
2023-02-07T07:05:44.487Z,99482.81
2023-02-07T07:08:14.665Z,99485.50
2023-02-07T07:10:42.214Z,99487.28
2023-02-07T07:13:10.286Z,99481.19
2023-02-07T07:15:38.179Z,99484.66
2023-02-07T07:18:06.045Z,99492.53
2023-02-07T07:20:33.584Z,99498.63
2023-02-07T07:23:01.074Z,99497.72
2023-02-07T07:25:28.760Z,99494.13
2023-02-07T07:27:57.393Z,99499.22
2023-02-07T07:30:25.283Z,99496.50
2023-02-07T07:32:52.852Z,99505.34
2023-02-07T07:35:20.473Z,99495.84
2023-02-07T07:37:48.020Z,99492.28
2023-02-07T07:40:15.572Z,99486.97
2023-02-07T07:42:43.120Z,99492.34
2023-02-07T07:45:21.022Z,99491.50
2023-02-07T07:47:48.559Z,99492.28
2023-02-07T07:50:16.183Z,99490.34
2023-02-07T07:52:43.723Z,99488.50
2023-02-07T07:55:11.278Z,99492.03
2023-02-07T07:57:40.141Z,99492.03
2023-02-07T08:00:08.301Z,99500.72
2023-02-07T08:02:42.608Z,99497.91
2023-02-07T08:05:13.540Z,99502.97
2023-02-07T08:07:41.383Z,99507.34
2023-02-07T08:10:09.133Z,99504.72
2023-02-07T08:12:36.796Z,99509.06
2023-02-07T08:15:04.900Z,99527.31
2023-02-07T08:17:32.403Z,99529.88
2023-02-07T08:19:59.879Z,99528.09
2023-02-07T08:22:27.376Z,99533.16
2023-02-07T08:24:54.880Z,99528.63
2023-02-07T08:27:22.577Z,99542.50
2023-02-07T08:29:50.070Z,99544.88
2023-02-07T08:32:17.660Z,99550.88
2023-02-07T08:34:45.402Z,99563.97
2023-02-07T08:37:13.144Z,99555.88
2023-02-07T08:39:40.671Z,99559.31
2023-02-07T08:42:09.714Z,99558.34
2023-02-07T08:44:37.589Z,99557.41
2023-02-07T08:47:05.215Z,99557.41
2023-02-07T08:49:32.741Z,99559.94
2023-02-07T08:52:00.272Z,99553.56
2023-02-07T08:54:27.765Z,99555.22
2023-02-07T08:56:55.309Z,99548.13
2023-02-07T08:59:22.944Z,99535.88
2023-02-07T09:01:50.531Z,99539.31
2023-02-07T09:04:18.264Z,99538.28
2023-02-07T09:06:45.830Z,99538.13
2023-02-07T09:09:13.375Z,99538.75
2023-02-07T09:11:40.976Z,99538.50
2023-02-07T09:14:08.445Z,99541.06
2023-02-07T09:16:36.121Z,99538.34
2023-02-07T09:19:03.874Z,99535.59
2023-02-07T09:21:33.270Z,99535.38
2023-02-07T09:24:00.739Z,99534.34
2023-02-07T09:26:29.312Z,99546.50
2023-02-07T09:28:56.793Z,99541.09
2023-02-07T09:31:24.789Z,99547.88
2023-02-07T09:33:52.995Z,99553.81
2023-02-07T09:36:25.991Z,99551.97
2023-02-07T09:38:55.316Z,99549.22
2023-02-07T09:41:42.462Z,99558.88
2023-02-07T09:44:53.683Z,99567.75
2023-02-07T09:47:24.516Z,99568.16
2023-02-07T09:50:05.807Z,99575.19
2023-02-07T09:52:52.446Z,99565.25
2023-02-07T09:55:41.499Z,99564.25
2023-02-07T09:58:39.250Z,99565.75
2023-02-07T10:01:19.126Z,99569.06
2023-02-07T10:04:08.843Z,99567.34
2023-02-07T10:06:39.794Z,99572.19
2023-02-07T10:09:16.602Z,99578.13
2023-02-07T10:12:00.286Z,99569.16
2023-02-07T10:15:26.036Z,99572.78
2023-02-07T10:18:01.813Z,99577.97
2023-02-07T10:21:12.631Z,99575.94
2023-02-07T10:23:45.736Z,99575.53
2023-02-07T10:26:39.333Z,99582.47
2023-02-07T10:29:44.507Z,99582.34
2023-02-07T10:32:23.500Z,99571.53
2023-02-07T10:34:56.447Z,99577.38
2023-02-07T10:37:28.806Z,99577.16
2023-02-07T10:40:29.213Z,99576.38
2023-02-07T10:43:12.470Z,99574.38
2023-02-07T10:45:42.265Z,99574.97
2023-02-07T10:48:16.382Z,99574.97
2023-02-07T10:50:43.994Z,99576.94
2023-02-07T10:53:11.608Z,99574.59
2023-02-07T10:55:47.840Z,99579.78
2023-02-07T10:58:24.347Z,99586.06
2023-02-07T11:00:54.115Z,99585.75
2023-02-07T11:03:24.481Z,99576.88
2023-02-07T11:06:05.967Z,99581.06
2023-02-07T11:08:35.672Z,99574.72
2023-02-07T11:11:32.718Z,99567.91
2023-02-07T11:14:05.984Z,99573.88
2023-02-07T11:16:34.712Z,99575.44
2023-02-07T11:19:05.884Z,99588.56
2023-02-07T11:21:33.250Z,99579.63
2023-02-07T11:24:07.846Z,99588.19
2023-02-07T11:27:21.554Z,99581.06
2023-02-07T11:29:59.133Z,99580.69
2023-02-07T11:32:29.070Z,99568.34
2023-02-07T11:35:01.443Z,99568.34
2023-02-07T11:37:35.266Z,99575.41
2023-02-07T11:40:38.938Z,99571.97
2023-02-07T11:43:09.341Z,99568.88
2023-02-07T11:45:41.524Z,99569.59
2023-02-07T11:48:31.933Z,99568.69
2023-02-07T11:51:03.348Z,99565.88
2023-02-07T11:53:47.265Z,99568.31
2023-02-07T11:56:35.312Z,99563.81
2023-02-07T11:59:21.833Z,99566.13
2023-02-07T12:01:53.674Z,99570.00
2023-02-07T12:04:37.237Z,99568.84
2023-02-07T12:07:09.610Z,99567.06
2023-02-07T12:09:59.104Z,99563.66
2023-02-07T12:12:54.017Z,99568.72
2023-02-07T12:15:39.440Z,99557.13
2023-02-07T12:18:35.224Z,99555.03
2023-02-07T12:21:15.652Z,99550.50
2023-02-07T12:23:46.938Z,99546.72
2023-02-07T12:26:24.897Z,99544.69
2023-02-07T12:29:27.900Z,99543.94
2023-02-07T12:32:26.903Z,99545.06
2023-02-07T12:35:31.291Z,99541.69
2023-02-07T12:38:23.805Z,99541.28
2023-02-07T12:41:01.614Z,99538.25
2023-02-07T12:43:38.098Z,99533.41
2023-02-07T12:46:51.402Z,99528.81
2023-02-07T12:49:44.428Z,99522.00
2023-02-07T12:52:39.773Z,99517.16
2023-02-07T12:55:40.680Z,99512.38
2023-02-07T12:58:43.048Z,99512.72
2023-02-07T13:01:53.627Z,99518.69
2023-02-07T13:05:25.636Z,99513.31
2023-02-07T13:08:19.683Z,99517.25
2023-02-07T13:11:18.025Z,99516.06
2023-02-07T13:14:10.062Z,99516.47
2023-02-07T13:16:47.954Z,99519.56
2023-02-07T13:19:27.899Z,99524.56
2023-02-07T13:22:51.883Z,99518.31
2023-02-07T13:25:27.631Z,99509.03
2023-02-07T13:27:59.183Z,99505.16
2023-02-07T13:30:29.726Z,99504.72
2023-02-07T13:33:05.986Z,99507.84
2023-02-07T13:35:36.860Z,99501.19
2023-02-07T13:38:46.352Z,99504.66
2023-02-07T13:41:36.205Z,99506.69
2023-02-07T13:44:34.656Z,99507.16
2023-02-07T13:47:16.865Z,99509.16
2023-02-07T13:50:08.436Z,99515.69
2023-02-07T13:53:01.835Z,99516.38
2023-02-07T13:55:37.891Z,99515.06
2023-02-07T13:58:53.214Z,99518.47
2023-02-07T14:01:28.042Z,99512.69
2023-02-07T14:04:14.260Z,99516.84
2023-02-07T14:07:00.328Z,99506.78
2023-02-07T14:09:40.439Z,99515.16
2023-02-07T14:12:37.030Z,99511.44
2023-02-07T14:15:34.950Z,99505.75
2023-02-07T14:18:47.310Z,99503.00
2023-02-07T14:21:21.359Z,99504.22
2023-02-07T14:23:49.893Z,99492.69
2023-02-07T14:26:39.200Z,99499.59
2023-02-07T14:29:24.358Z,99489.47
2023-02-07T14:31:56.475Z,99492.25
2023-02-07T14:34:30.390Z,99486.94
2023-02-07T14:37:00.285Z,99490.53
2023-02-07T14:39:33.448Z,99493.00
2023-02-07T14:42:17.755Z,99498.56
2023-02-07T14:44:47.986Z,99484.59
2023-02-07T14:47:28.149Z,99496.31
2023-02-07T14:50:00.062Z,99499.75
2023-02-07T14:52:32.731Z,99506.31
2023-02-07T14:55:15.470Z,99499.03
2023-02-07T14:57:49.160Z,99505.84
2023-02-07T15:00:31.374Z,99498.09
2023-02-07T15:03:05.188Z,99499.34
2023-02-07T15:05:38.418Z,99504.63
2023-02-07T15:08:25.055Z,99498.19
2023-02-07T15:11:12.653Z,99494.78
2023-02-07T15:13:47.175Z,99494.31
2023-02-07T15:16:22.317Z,99487.72
2023-02-07T15:18:56.736Z,99495.94
2023-02-07T15:21:29.807Z,99489.72
2023-02-07T15:24:05.306Z,99497.56
2023-02-07T15:26:35.143Z,99496.91
2023-02-07T15:29:08.098Z,99489.06
2023-02-07T15:31:40.897Z,99491.81
2023-02-07T15:34:16.696Z,99501.56
2023-02-07T15:36:47.633Z,99507.53
2023-02-07T15:39:21.388Z,99504.13
2023-02-07T15:41:55.405Z,99504.22
2023-02-07T15:44:24.060Z,99509.59
2023-02-07T15:47:06.193Z,99514.06
2023-02-07T15:49:42.070Z,99513.72
2023-02-07T15:52:25.987Z,99515.31
2023-02-07T15:54:55.503Z,99517.50
2023-02-07T15:57:33.355Z,99517.97
2023-02-07T16:00:06.335Z,99513.16
2023-02-07T16:02:48.094Z,99511.72
2023-02-07T16:05:32.152Z,99521.19
2023-02-07T16:08:26.628Z,99524.41
2023-02-07T16:10:54.275Z,99525.06
2023-02-07T16:13:22.679Z,99526.44
2023-02-07T16:16:08.903Z,99525.31
2023-02-07T16:18:46.652Z,99518.50
2023-02-07T16:21:27.800Z,99525.06
2023-02-07T16:24:17.944Z,99534.41
2023-02-07T16:26:46.520Z,99532.31
2023-02-07T16:29:19.614Z,99531.13
2023-02-07T16:31:47.804Z,99534.19
2023-02-07T16:34:18.186Z,99534.81
2023-02-07T16:36:51.493Z,99536.09
2023-02-07T16:39:19.396Z,99526.81
2023-02-07T16:41:52.352Z,99534.16
2023-02-07T16:44:24.571Z,99524.13
2023-02-07T16:46:52.602Z,99535.22
2023-02-07T16:49:23.472Z,99536.44
2023-02-07T16:51:51.746Z,99532.41
2023-02-07T16:54:19.433Z,99525.69
2023-02-07T16:56:57.323Z,99538.28
2023-02-07T16:59:25.676Z,99538.59
2023-02-07T17:01:54.514Z,99537.16
2023-02-07T17:04:22.462Z,99540.13
2023-02-07T17:06:50.555Z,99546.66
2023-02-07T17:09:25.341Z,99543.44
2023-02-07T17:11:53.957Z,99544.59
2023-02-07T17:14:22.332Z,99539.72
2023-02-07T17:16:50.241Z,99545.31
2023-02-07T17:19:23.800Z,99541.16
2023-02-07T17:21:52.471Z,99540.59
2023-02-07T17:24:19.997Z,99538.97
2023-02-07T17:26:52.313Z,99539.88
2023-02-07T17:29:20.006Z,99531.28
2023-02-07T17:31:47.599Z,99544.72
2023-02-07T17:34:15.318Z,99549.28
2023-02-07T17:36:50.090Z,99548.69
2023-02-07T17:39:19.163Z,99548.97
2023-02-07T17:41:46.807Z,99544.84
2023-02-07T17:44:14.433Z,99545.09
2023-02-07T17:46:41.938Z,99551.47
2023-02-07T17:49:17.045Z,99557.13
2023-02-07T17:51:44.581Z,99551.13
2023-02-07T17:54:12.105Z,99555.63
2023-02-07T17:56:39.725Z,99563.69
2023-02-07T17:59:13.098Z,99565.66
2023-02-07T18:01:40.583Z,99565.78
2023-02-07T18:04:08.150Z,99568.56
2023-02-07T18:06:35.795Z,99567.88
2023-02-07T18:09:03.444Z,99573.22
2023-02-07T18:11:31.221Z,99578.63
2023-02-07T18:13:58.824Z,99571.66
2023-02-07T18:16:27.046Z,99576.94
2023-02-07T18:18:56.998Z,99582.97
2023-02-07T18:21:25.178Z,99571.56
2023-02-07T18:23:53.316Z,99574.28
2023-02-07T18:26:21.860Z,99565.59
2023-02-07T18:28:49.864Z,99565.59
2023-02-07T18:31:24.374Z,99575.22
2023-02-07T18:33:53.879Z,99578.00
2023-02-07T18:36:24.063Z,99578.00
2023-02-07T18:38:51.565Z,99573.88
2023-02-07T18:41:23.307Z,99583.78
2023-02-07T18:43:52.241Z,99576.00
2023-02-07T18:46:20.834Z,99571.81
2023-02-07T18:48:53.334Z,99570.25
2023-02-07T18:51:21.295Z,99573.94
2023-02-07T18:53:50.384Z,99586.47
2023-02-07T18:56:21.932Z,99583.06
2023-02-07T18:58:52.807Z,99577.94
2023-02-07T19:01:20.889Z,99588.69
2023-02-07T19:03:54.058Z,99583.50
2023-02-07T19:06:52.050Z,99581.22
2023-02-07T19:09:23.218Z,99579.28
2023-02-07T19:11:52.835Z,99580.22
2023-02-07T19:14:24.428Z,99576.88
2023-02-07T19:16:55.667Z,99581.28
2023-02-07T19:19:27.836Z,99583.06
2023-02-07T19:21:56.276Z,99577.88
2023-02-07T19:24:27.010Z,99579.63
2023-02-07T19:26:58.056Z,99582.19
2023-02-07T19:29:29.410Z,99578.59
2023-02-07T19:31:58.949Z,99584.72
2023-02-07T19:34:27.588Z,99582.06
2023-02-07T19:36:56.565Z,99582.00
2023-02-07T19:39:25.037Z,99581.06
2023-02-07T19:41:52.728Z,99587.13
2023-02-07T19:44:20.493Z,99582.78
2023-02-07T19:46:48.077Z,99579.22
2023-02-07T19:49:15.876Z,99580.16
2023-02-07T19:51:43.430Z,99593.31
2023-02-07T19:54:10.984Z,99582.00
2023-02-07T19:56:38.754Z,99580.28
2023-02-07T19:59:07.149Z,99590.09
2023-02-07T20:01:37.878Z,99590.16
2023-02-07T20:04:05.997Z,99589.31
2023-02-07T20:06:35.211Z,99595.53
2023-02-07T20:09:05.755Z,99592.16
2023-02-07T20:11:33.920Z,99596.59
2023-02-07T20:14:03.571Z,99598.50
2023-02-07T20:16:35.307Z,99602.03
2023-02-07T20:19:05.770Z,99594.38
2023-02-07T20:21:35.588Z,99594.44
2023-02-07T20:24:03.948Z,99594.56
2023-02-07T20:26:43.311Z,99590.34
2023-02-07T20:29:14.730Z,99597.41
2023-02-07T20:31:43.743Z,99589.72
2023-02-07T20:34:11.710Z,99588.00
2023-02-07T20:36:43.662Z,99589.06
2023-02-07T20:39:15.600Z,99591.91
2023-02-07T20:41:45.977Z,99588.53
2023-02-07T20:44:21.044Z,99582.50
2023-02-07T20:46:49.597Z,99580.66
2023-02-07T20:49:22.163Z,99589.44
2023-02-07T20:51:51.734Z,99582.56
2023-02-07T20:54:23.279Z,99587.88
2023-02-07T20:56:52.758Z,99586.19
2023-02-07T20:59:32.873Z,99581.16
2023-02-07T21:02:00.775Z,99583.78
2023-02-07T21:04:29.514Z,99582.22
2023-02-07T21:06:57.076Z,99582.38
2023-02-07T21:09:24.696Z,99589.53
2023-02-07T21:11:53.561Z,99584.38
2023-02-07T21:14:31.294Z,99586.44
2023-02-07T21:17:06.449Z,99584.81
2023-02-07T21:19:35.937Z,99579.53
2023-02-07T21:22:04.805Z,99577.88
2023-02-07T21:24:32.910Z,99576.19
2023-02-07T21:27:02.984Z,99568.34
2023-02-07T21:29:30.769Z,99571.88
2023-02-07T21:31:58.389Z,99571.97
2023-02-07T21:34:25.939Z,99572.94
2023-02-07T21:36:53.515Z,99583.50
2023-02-07T21:39:23.427Z,99583.72
2023-02-07T21:41:51.335Z,99580.31
2023-02-07T21:44:21.040Z,99583.78
2023-02-07T21:46:49.886Z,99573.31
2023-02-07T21:49:20.422Z,99574.25
2023-02-07T21:51:49.890Z,99583.97
2023-02-07T21:54:17.585Z,99572.63
2023-02-07T21:56:45.802Z,99574.50
2023-02-07T21:59:16.850Z,99575.34
2023-02-07T22:01:46.252Z,99576.34
2023-02-07T22:04:14.730Z,99572.06
2023-02-07T22:06:44.462Z,99572.06
2023-02-07T22:09:14.839Z,99579.16
2023-02-07T22:11:43.019Z,99577.50
2023-02-07T22:14:14.139Z,99572.25
2023-02-07T22:16:42.779Z,99577.56
2023-02-07T22:19:14.026Z,99576.78
2023-02-07T22:21:41.568Z,99576.00
2023-02-07T22:24:13.361Z,99569.09
2023-02-07T22:26:41.771Z,99565.53
2023-02-07T22:29:10.344Z,99565.66
2023-02-07T22:31:40.391Z,99567.50
2023-02-07T22:34:12.527Z,99569.41
2023-02-07T22:36:43.153Z,99572.09
2023-02-07T22:39:12.842Z,99566.03
2023-02-07T22:41:40.371Z,99567.81
2023-02-07T22:44:07.955Z,99566.09
2023-02-07T22:46:35.510Z,99567.88
2023-02-07T22:49:03.174Z,99569.75
2023-02-07T22:51:37.300Z,99562.88
2023-02-07T22:54:09.825Z,99564.75
2023-02-07T22:56:38.189Z,99564.88
2023-02-07T22:59:06.770Z,99562.25
2023-02-07T23:01:38.991Z,99564.88
2023-02-07T23:04:13.462Z,99564.81
2023-02-07T23:06:41.297Z,99562.25
2023-02-07T23:09:09.041Z,99566.59
2023-02-07T23:11:37.103Z,99562.28
2023-02-07T23:14:05.973Z,99569.47
2023-02-07T23:16:34.433Z,99562.53
2023-02-07T23:19:11.989Z,99563.47
2023-02-07T23:21:40.017Z,99556.44
2023-02-07T23:24:08.097Z,99556.50
2023-02-07T23:26:35.863Z,99554.00
2023-02-07T23:29:05.020Z,99552.28
2023-02-07T23:31:32.897Z,99566.41
2023-02-07T23:34:00.570Z,99560.41
2023-02-07T23:36:28.563Z,99551.69
2023-02-07T23:38:56.217Z,99557.00
2023-02-07T23:41:23.711Z,99553.50
2023-02-07T23:43:51.217Z,99563.09
2023-02-07T23:46:19.174Z,99557.03
2023-02-07T23:48:46.723Z,99556.19
2023-02-07T23:51:15.525Z,99557.22
2023-02-07T23:53:44.446Z,99549.47
2023-02-07T23:56:21.441Z,99553.91
2023-02-07T23:58:50.368Z,99546.97
